createdAt,value
2018-02-18T00:01:13.020Z,18.40
2018-02-18T00:03:41.381Z,18.80
2018-02-18T00:06:09.587Z,17.95
2018-02-18T00:08:38.640Z,18.73
2018-02-18T00:11:06.872Z,19.62
2018-02-18T00:13:35.098Z,17.95
2018-02-18T00:16:03.375Z,18.95
2018-02-18T00:18:31.751Z,19.30
2018-02-18T00:21:00.842Z,19.40
2018-02-18T00:23:29.055Z,18.02
2018-02-18T00:25:57.404Z,18.85
2018-02-18T00:28:25.687Z,18.48
2018-02-18T00:30:53.948Z,16.90
2018-02-18T00:33:22.192Z,18.20
2018-02-18T00:35:50.430Z,17.80
2018-02-18T00:38:19.473Z,16.92
2018-02-18T00:40:47.727Z,17.98
2018-02-18T00:43:16.094Z,18.60
2018-02-18T00:45:44.429Z,20.95
2018-02-18T00:48:12.696Z,16.80
2018-02-18T00:50:41.069Z,18.17
2018-02-18T00:53:09.280Z,19.10
2018-02-18T00:55:38.287Z,19.52
2018-02-18T00:58:06.545Z,18.42
2018-02-18T01:00:34.816Z,19.65
2018-02-18T01:03:03.804Z,17.93
2018-02-18T01:05:32.054Z,19.85
2018-02-18T01:08:00.287Z,20.20
2018-02-18T01:10:28.514Z,20.58
2018-02-18T01:12:57.544Z,19.85
2018-02-18T01:15:25.873Z,19.42
2018-02-18T01:17:54.096Z,20.07
2018-02-18T01:20:22.428Z,19.70
2018-02-18T01:22:50.683Z,19.75
2018-02-18T01:25:18.975Z,20.70
2018-02-18T01:27:47.190Z,21.05
2018-02-18T01:30:16.209Z,20.25
2018-02-18T01:32:44.435Z,21.00
2018-02-18T01:35:12.690Z,22.10
2018-02-18T01:37:40.908Z,21.85
2018-02-18T01:40:09.167Z,21.55
2018-02-18T01:42:38.162Z,21.20
2018-02-18T01:45:06.418Z,21.20
2018-02-18T01:47:34.679Z,21.37
2018-02-18T01:50:14.940Z,22.67
2018-02-18T01:52:43.154Z,23.87
2018-02-18T01:55:11.488Z,21.25
2018-02-18T01:57:39.724Z,21.15
2018-02-18T02:00:08.040Z,21.25
2018-02-18T02:02:36.620Z,23.10
2018-02-18T02:05:04.840Z,23.75
2018-02-18T02:07:33.143Z,23.90
2018-02-18T02:10:01.405Z,21.17
2018-02-18T02:12:29.679Z,23.10
2018-02-18T02:14:57.935Z,22.10
2018-02-18T02:17:26.190Z,21.58
2018-02-18T02:19:56.099Z,21.73
2018-02-18T02:22:24.304Z,22.15
2018-02-18T02:24:52.640Z,21.75
2018-02-18T02:27:20.914Z,21.48
2018-02-18T02:29:49.884Z,23.20
2018-02-18T02:32:18.228Z,22.45
2018-02-18T02:34:46.467Z,21.10
2018-02-18T02:37:14.729Z,22.10
2018-02-18T02:39:43.114Z,23.73
2018-02-18T02:42:11.332Z,24.48
2018-02-18T02:44:39.581Z,21.83
2018-02-18T02:47:08.605Z,23.27
2018-02-18T02:49:36.882Z,21.27
2018-02-18T02:52:05.127Z,21.40
2018-02-18T02:54:34.199Z,25.17
2018-02-18T02:57:02.422Z,22.50
2018-02-18T02:59:30.685Z,22.45
2018-02-18T03:01:58.928Z,23.00
2018-02-18T03:04:27.198Z,23.75
2018-02-18T03:06:56.188Z,22.75
2018-02-18T03:09:24.439Z,22.08
2018-02-18T03:11:52.683Z,21.55
2018-02-18T03:14:20.904Z,22.92
2018-02-18T03:16:49.125Z,22.23
2018-02-18T03:19:17.376Z,23.35
2018-02-18T03:21:45.632Z,22.98
2018-02-18T03:24:13.916Z,22.58
2018-02-18T03:26:42.186Z,22.42
2018-02-18T03:29:10.460Z,22.40
2018-02-18T03:31:38.663Z,22.17
2018-02-18T03:34:07.700Z,24.27
2018-02-18T03:36:35.924Z,23.17
2018-02-18T03:39:04.893Z,22.60
2018-02-18T03:41:33.171Z,21.75
2018-02-18T03:44:01.384Z,21.90
2018-02-18T03:46:29.644Z,23.08
2018-02-18T03:48:58.714Z,24.40
2018-02-18T03:51:26.941Z,21.40
2018-02-18T03:53:55.263Z,21.52
2018-02-18T03:56:23.538Z,22.40
2018-02-18T03:58:51.767Z,22.25
2018-02-18T04:01:20.093Z,22.05
2018-02-18T04:03:48.328Z,22.30
2018-02-18T04:06:16.641Z,22.83
2018-02-18T04:08:44.915Z,24.23
2018-02-18T04:11:13.139Z,20.98
2018-02-18T04:13:42.127Z,22.30
2018-02-18T04:16:10.385Z,20.92
2018-02-18T04:18:39.400Z,23.00
2018-02-18T04:21:07.656Z,22.23
2018-02-18T04:23:35.911Z,22.23
2018-02-18T04:26:04.163Z,23.27
2018-02-18T04:28:32.390Z,23.17
2018-02-18T04:31:00.616Z,22.62
2018-02-18T04:33:28.898Z,19.93
2018-02-18T04:35:57.120Z,20.55
2018-02-18T04:38:25.399Z,22.25
2018-02-18T04:40:53.625Z,23.85
2018-02-18T04:43:21.885Z,22.00
2018-02-18T04:45:50.379Z,23.42
2018-02-18T04:48:18.654Z,22.50
2018-02-18T04:50:46.875Z,22.17
2018-02-18T04:53:15.099Z,23.40
2018-02-18T04:55:43.399Z,22.48
2018-02-18T04:58:12.400Z,23.70
2018-02-18T05:00:41.423Z,22.45
2018-02-18T05:03:09.740Z,20.53
2018-02-18T05:05:37.967Z,23.05
2018-02-18T05:08:06.311Z,23.83
2018-02-18T05:10:34.524Z,23.38
2018-02-18T05:13:02.896Z,22.37
2018-02-18T05:15:31.222Z,24.12
2018-02-18T05:17:59.539Z,22.37
2018-02-18T05:20:27.976Z,23.48
2018-02-18T05:22:56.192Z,24.17
2018-02-18T05:25:24.438Z,23.00
2018-02-18T05:27:53.451Z,28.23
2018-02-18T05:30:22.477Z,24.73
2018-02-18T05:32:50.733Z,25.60
2018-02-18T05:35:19.007Z,23.83
2018-02-18T05:37:47.242Z,23.87
2018-02-18T05:40:15.487Z,22.00
2018-02-18T05:42:43.805Z,23.62
2018-02-18T05:45:12.004Z,23.70
2018-02-18T05:47:40.337Z,23.33
2018-02-18T05:50:08.612Z,22.02
2018-02-18T05:52:36.835Z,22.30
2018-02-18T05:55:05.112Z,22.52
2018-02-18T05:57:33.372Z,22.95
2018-02-18T06:00:02.407Z,22.87
2018-02-18T06:02:30.643Z,21.00
2018-02-18T06:04:58.899Z,19.77
2018-02-18T06:07:27.977Z,22.58
2018-02-18T06:09:56.199Z,22.73
2018-02-18T06:12:24.523Z,22.67
2018-02-18T06:14:52.718Z,21.92
2018-02-18T06:17:21.792Z,23.20
2018-02-18T06:19:50.004Z,24.27
2018-02-18T06:22:19.028Z,22.02
2018-02-18T06:24:47.338Z,22.87
2018-02-18T06:27:15.545Z,25.15
2018-02-18T06:29:44.555Z,22.62
2018-02-18T06:32:12.878Z,21.10
2018-02-18T06:34:41.362Z,24.77
2018-02-18T06:37:09.736Z,24.80
2018-02-18T06:39:37.949Z,23.80
2018-02-18T06:42:06.200Z,22.70
2018-02-18T06:44:34.582Z,22.80
2018-02-18T06:47:02.790Z,23.80
2018-02-18T06:49:31.073Z,25.30
2018-02-18T06:51:59.398Z,25.67
2018-02-18T06:54:27.611Z,24.12
2018-02-18T06:56:55.885Z,25.00
2018-02-18T06:59:24.114Z,25.00
2018-02-18T07:01:52.349Z,24.98
2018-02-18T07:04:20.608Z,24.10
2018-02-18T07:06:49.626Z,25.60
2018-02-18T07:09:17.879Z,24.70
2018-02-18T07:11:46.860Z,25.90
2018-02-18T07:14:15.179Z,22.75
2018-02-18T07:16:43.398Z,24.00
2018-02-18T07:19:12.467Z,23.80
2018-02-18T07:21:40.720Z,24.50
2018-02-18T07:24:08.932Z,24.87
2018-02-18T07:26:37.292Z,23.00
2018-02-18T07:29:05.513Z,24.35
2018-02-18T07:31:33.951Z,21.75
2018-02-18T07:34:02.334Z,22.90
2018-02-18T07:36:30.555Z,21.45
2018-02-18T07:38:58.947Z,23.38
2018-02-18T07:41:27.189Z,24.33
2018-02-18T07:43:55.464Z,29.50
2018-02-18T07:46:24.481Z,35.22
2018-02-18T07:48:52.752Z,25.00
2018-02-18T07:51:20.984Z,25.50
2018-02-18T07:53:49.224Z,25.62
2018-02-18T07:56:17.535Z,22.75
2018-02-18T07:58:46.620Z,28.05
2018-02-18T08:01:14.900Z,22.70
2018-02-18T08:03:43.155Z,23.77
2018-02-18T08:06:11.380Z,25.33
2018-02-18T08:08:39.639Z,23.70
2018-02-18T08:11:07.959Z,24.10
2018-02-18T08:13:36.211Z,24.02
2018-02-18T08:16:04.472Z,22.77
2018-02-18T08:18:33.484Z,21.40
2018-02-18T08:21:01.741Z,24.02
2018-02-18T08:23:30.744Z,22.45
2018-02-18T08:25:59.188Z,22.95
2018-02-18T08:28:27.456Z,22.58
2018-02-18T08:30:55.696Z,21.65
2018-02-18T08:33:23.956Z,21.50
2018-02-18T08:35:52.240Z,21.75
2018-02-18T08:38:20.544Z,21.65
2018-02-18T08:40:48.769Z,21.65
2018-02-18T08:43:17.047Z,23.25
2018-02-18T08:45:46.062Z,22.17
2018-02-18T08:48:14.326Z,24.67
2018-02-18T08:50:42.574Z,21.48
2018-02-18T08:53:10.810Z,22.45
2018-02-18T08:55:39.090Z,21.95
2018-02-18T08:58:07.336Z,21.25
2018-02-18T09:00:35.599Z,21.83
2018-02-18T09:03:03.836Z,21.47
2018-02-18T09:05:33.606Z,21.85
2018-02-18T09:08:01.858Z,22.48
2018-02-18T09:10:30.095Z,22.62
2018-02-18T09:12:58.563Z,21.87
2018-02-18T09:15:26.799Z,21.98
2018-02-18T09:17:55.069Z,22.13
2018-02-18T09:20:23.295Z,20.30
2018-02-18T09:22:51.588Z,22.60
2018-02-18T09:25:20.604Z,21.27
2018-02-18T09:27:48.867Z,20.95
2018-02-18T09:30:17.935Z,24.55
2018-02-18T09:32:46.214Z,22.20
2018-02-18T09:35:14.490Z,27.95
2018-02-18T09:37:42.752Z,28.38
2018-02-18T09:40:11.039Z,24.90
2018-02-18T09:42:39.406Z,26.33
2018-02-18T09:45:07.689Z,24.95
2018-02-18T09:47:36.057Z,24.23
2018-02-18T09:50:04.293Z,26.48
2018-02-18T09:52:32.560Z,25.27
2018-02-18T09:55:00.805Z,23.08
2018-02-18T09:57:29.824Z,21.62
2018-02-18T09:59:58.077Z,25.40
2018-02-18T10:02:26.399Z,24.77
2018-02-18T10:04:54.674Z,24.45
2018-02-18T10:07:22.976Z,23.12
2018-02-18T10:09:51.253Z,23.02
2018-02-18T10:12:19.739Z,23.98
2018-02-18T10:14:48.112Z,22.35
2018-02-18T10:17:16.332Z,22.25
2018-02-18T10:19:44.668Z,20.75
2018-02-18T10:22:12.919Z,22.55
2018-02-18T10:24:41.187Z,20.77
2018-02-18T10:27:09.510Z,21.80
2018-02-18T10:29:37.769Z,23.25
2018-02-18T10:32:06.062Z,21.10
2018-02-18T10:34:35.100Z,22.40
2018-02-18T10:37:03.410Z,26.17
2018-02-18T10:39:31.670Z,21.12
2018-02-18T10:41:59.946Z,23.85
2018-02-18T10:44:28.249Z,25.25
2018-02-18T10:46:56.526Z,29.12
2018-02-18T10:49:24.787Z,23.73
2018-02-18T10:51:53.094Z,23.95
2018-02-18T10:54:22.264Z,24.73
2018-02-18T10:56:50.552Z,26.98
2018-02-18T10:59:19.731Z,24.83
2018-02-18T11:01:48.036Z,24.85
2018-02-18T11:04:17.035Z,23.38
2018-02-18T11:06:45.320Z,23.12
2018-02-18T11:09:13.580Z,26.00
2018-02-18T11:11:42.883Z,23.33
2018-02-18T11:14:11.227Z,24.67
2018-02-18T11:16:39.505Z,25.05
2018-02-18T11:19:08.544Z,24.10
2018-02-18T11:21:37.599Z,23.80
2018-02-18T11:24:05.877Z,23.33
2018-02-18T11:26:34.249Z,26.35
2018-02-18T11:29:02.519Z,26.23
2018-02-18T11:31:31.549Z,24.45
2018-02-18T11:34:00.603Z,23.80
2018-02-18T11:36:28.836Z,22.48
2018-02-18T11:38:57.122Z,24.23
2018-02-18T11:41:25.391Z,21.15
2018-02-18T11:43:53.703Z,22.65
2018-02-18T11:46:21.972Z,22.67
2018-02-18T11:48:50.256Z,21.80
2018-02-18T11:51:19.514Z,22.73
2018-02-18T11:53:47.756Z,22.98
2018-02-18T11:56:16.124Z,23.67
2018-02-18T11:58:45.305Z,23.10
2018-02-18T12:01:14.495Z,23.67
2018-02-18T12:03:42.783Z,22.50
2018-02-18T12:06:11.059Z,22.90
2018-02-18T12:08:39.428Z,21.95
2018-02-18T12:11:07.720Z,22.95
2018-02-18T12:13:35.943Z,24.52
2018-02-18T12:16:04.221Z,24.70
2018-02-18T12:18:32.456Z,22.60
2018-02-18T12:21:01.496Z,22.00
2018-02-18T12:23:29.799Z,21.80
2018-02-18T12:25:58.052Z,22.10
2018-02-18T12:28:26.359Z,23.00
2018-02-18T12:30:55.388Z,23.12
2018-02-18T12:33:24.446Z,22.37
2018-02-18T12:35:52.719Z,23.25
2018-02-18T12:38:20.999Z,21.80
2018-02-18T12:40:49.280Z,23.15
2018-02-18T12:43:17.538Z,21.02
2018-02-18T12:45:45.821Z,23.55
2018-02-18T12:48:14.088Z,21.70
2018-02-18T12:50:42.371Z,20.83
2018-02-18T12:53:10.625Z,23.52
2018-02-18T12:55:39.018Z,21.50
2018-02-18T12:58:08.225Z,23.77
2018-02-18T13:00:37.391Z,23.90
2018-02-18T13:03:06.424Z,22.10
2018-02-18T13:05:34.714Z,20.57
2018-02-18T13:08:03.000Z,21.20
2018-02-18T13:10:32.105Z,21.20
2018-02-18T13:13:00.465Z,20.98
2018-02-18T13:15:28.817Z,22.00
2018-02-18T13:17:57.062Z,22.75
2018-02-18T13:20:25.359Z,20.33
2018-02-18T13:22:54.454Z,18.85
2018-02-18T13:25:23.467Z,19.37
2018-02-18T13:27:51.825Z,18.67
2018-02-18T13:30:20.132Z,20.42
2018-02-18T13:32:48.384Z,19.87
2018-02-18T13:35:16.752Z,21.10
2018-02-18T13:37:45.031Z,23.10
2018-02-18T13:40:13.417Z,19.58
2018-02-18T13:42:41.725Z,19.10
2018-02-18T13:45:10.750Z,19.12
2018-02-18T13:47:39.021Z,20.37
2018-02-18T13:50:07.285Z,19.67
2018-02-18T13:52:35.599Z,19.58
2018-02-18T13:55:03.854Z,20.55
2018-02-18T13:57:32.139Z,19.15
2018-02-18T14:00:00.369Z,18.70
2018-02-18T14:02:28.706Z,17.55
2018-02-18T14:04:57.238Z,18.30
2018-02-18T14:07:25.488Z,19.52
2018-02-18T14:09:54.581Z,18.05
2018-02-18T14:12:23.599Z,21.00
2018-02-18T14:14:51.892Z,19.05
2018-02-18T14:17:20.159Z,20.02
2018-02-18T14:19:48.410Z,18.33
2018-02-18T14:22:17.472Z,20.67
2018-02-18T14:24:45.748Z,19.67
2018-02-18T14:27:14.121Z,18.67
2018-02-18T14:29:42.402Z,19.90
2018-02-18T14:32:10.670Z,18.70
2018-02-18T14:34:38.899Z,18.60
2018-02-18T14:37:09.541Z,19.77
2018-02-18T14:39:37.854Z,18.85
2018-02-18T14:42:17.915Z,18.67
2018-02-18T14:44:58.787Z,18.17
2018-02-18T14:47:39.133Z,19.30
2018-02-18T14:50:19.212Z,18.23
2018-02-18T14:53:00.267Z,16.87
2018-02-18T14:55:40.336Z,18.55
2018-02-18T14:58:08.714Z,17.02
2018-02-18T15:00:37.789Z,17.60
2018-02-18T15:03:06.057Z,17.52
2018-02-18T15:05:34.448Z,17.93
2018-02-18T15:08:02.677Z,17.80
2018-02-18T15:10:30.944Z,15.82
2018-02-18T15:13:00.091Z,16.55
2018-02-18T15:15:28.432Z,17.17
2018-02-18T15:17:56.704Z,15.20
2018-02-18T15:20:25.017Z,14.67
2018-02-18T15:22:53.313Z,15.75
2018-02-18T15:25:21.538Z,15.25
2018-02-18T15:27:49.960Z,16.98
2018-02-18T15:30:19.037Z,16.90
2018-02-18T15:32:47.311Z,15.45
2018-02-18T15:35:15.815Z,17.15
2018-02-18T15:37:44.092Z,16.48
2018-02-18T15:40:12.377Z,15.80
2018-02-18T15:42:41.646Z,15.32
2018-02-18T15:45:10.735Z,15.77
2018-02-18T15:47:38.990Z,15.75
2018-02-18T15:50:07.446Z,15.20
2018-02-18T15:52:35.808Z,16.37
2018-02-18T15:55:04.862Z,16.48
2018-02-18T15:57:33.138Z,15.10
2018-02-18T16:00:01.374Z,14.13
2018-02-18T16:02:29.686Z,14.48
2018-02-18T16:04:57.969Z,15.70
2018-02-18T16:07:27.418Z,14.07
2018-02-18T16:09:55.743Z,15.25
2018-02-18T16:12:24.128Z,14.50
2018-02-18T16:14:52.390Z,14.85
2018-02-18T16:17:20.653Z,13.95
2018-02-18T16:19:48.971Z,12.40
2018-02-18T16:22:17.326Z,13.10
2018-02-18T16:24:46.419Z,15.00
2018-02-18T16:27:14.659Z,12.57
2018-02-18T16:29:42.949Z,12.93
2018-02-18T16:32:11.356Z,12.57
2018-02-18T16:34:39.626Z,11.40
2018-02-18T16:37:07.974Z,11.45
2018-02-18T16:39:36.973Z,11.50
2018-02-18T16:42:05.475Z,11.35
2018-02-18T16:44:33.753Z,10.70
2018-02-18T16:47:02.028Z,12.35
2018-02-18T16:49:30.309Z,11.43
2018-02-18T16:51:58.630Z,12.82
2018-02-18T16:54:26.896Z,14.93
2018-02-18T16:56:55.158Z,16.40
2018-02-18T16:59:24.215Z,16.45
2018-02-18T17:01:52.496Z,16.02
2018-02-18T17:04:20.873Z,14.70
2018-02-18T17:06:49.148Z,14.52
2018-02-18T17:09:17.385Z,13.85
2018-02-18T17:11:45.802Z,16.62
2018-02-18T17:14:14.052Z,17.92
2018-02-18T17:16:42.344Z,19.50
2018-02-18T17:19:10.732Z,21.02
2018-02-18T17:21:39.008Z,16.50
2018-02-18T17:24:07.383Z,16.58
2018-02-18T17:26:35.624Z,17.52
2018-02-18T17:29:03.942Z,16.67
2018-02-18T17:31:32.222Z,16.73
2018-02-18T17:34:00.518Z,16.63
2018-02-18T17:36:28.752Z,18.98
2018-02-18T17:38:57.025Z,17.48
2018-02-18T17:41:26.243Z,16.75
2018-02-18T17:43:54.518Z,15.63
2018-02-18T17:46:22.787Z,15.63
2018-02-18T17:48:51.038Z,16.20
2018-02-18T17:51:19.544Z,16.62
2018-02-18T17:53:47.812Z,17.25
2018-02-18T17:56:16.120Z,16.80
2018-02-18T17:58:44.469Z,17.85
2018-02-18T18:01:12.767Z,17.48
2018-02-18T18:03:41.088Z,17.40
2018-02-18T18:06:09.397Z,17.33
2018-02-18T18:08:37.666Z,17.33
2018-02-18T18:11:05.953Z,19.00
2018-02-18T18:13:34.232Z,17.42
2018-02-18T18:16:02.609Z,16.10
2018-02-18T18:18:30.909Z,16.95
2018-02-18T18:20:59.264Z,17.42
2018-02-18T18:23:27.531Z,18.20
2018-02-18T18:25:55.926Z,17.87
2018-02-18T18:28:24.199Z,19.12
2018-02-18T18:30:52.460Z,16.50
2018-02-18T18:33:20.794Z,18.08
2018-02-18T18:35:49.082Z,18.62
2018-02-18T18:38:17.356Z,18.10
2018-02-18T18:40:45.729Z,18.73
2018-02-18T18:43:14.146Z,17.00
2018-02-18T18:45:42.392Z,18.23
2018-02-18T18:48:10.662Z,18.08
2018-02-18T18:50:38.996Z,18.53
2018-02-18T18:53:07.313Z,19.55
2018-02-18T18:55:35.732Z,17.50
2018-02-18T18:58:04.104Z,18.70
2018-02-18T19:00:32.487Z,18.87
2018-02-18T19:03:00.858Z,17.55
2018-02-18T19:05:29.108Z,18.50
2018-02-18T19:07:57.373Z,18.25
2018-02-18T19:10:25.671Z,17.62
2018-02-18T19:12:53.982Z,17.87
2018-02-18T19:15:23.052Z,17.52
2018-02-18T19:17:51.587Z,17.12
2018-02-18T19:20:19.899Z,18.85
2018-02-18T19:22:48.301Z,18.50
2018-02-18T19:25:16.576Z,17.75
2018-02-18T19:27:44.848Z,19.30
2018-02-18T19:30:13.220Z,19.20
2018-02-18T19:32:41.599Z,17.73
2018-02-18T19:35:09.907Z,18.02
2018-02-18T19:37:38.298Z,17.40
2018-02-18T19:40:07.300Z,18.48
2018-02-18T19:42:35.657Z,17.40
2018-02-18T19:45:04.016Z,17.80
2018-02-18T19:47:32.385Z,19.75
2018-02-18T19:50:01.488Z,19.47
2018-02-18T19:52:29.801Z,17.40
2018-02-18T19:54:58.957Z,20.98
2018-02-18T19:57:27.336Z,18.58
2018-02-18T19:59:55.649Z,18.80
2018-02-18T20:02:24.812Z,20.40
2018-02-18T20:04:53.151Z,18.20
2018-02-18T20:07:21.446Z,18.48
2018-02-18T20:09:50.543Z,17.37
2018-02-18T20:12:18.920Z,19.58
2018-02-18T20:14:47.169Z,19.05
2018-02-18T20:17:15.486Z,20.27
2018-02-18T20:19:43.780Z,19.27
2018-02-18T20:22:12.061Z,18.12
2018-02-18T20:24:40.390Z,17.50
2018-02-18T20:27:08.666Z,19.23
2018-02-18T20:29:37.052Z,18.35
2018-02-18T20:32:05.479Z,20.80
2018-02-18T20:34:33.808Z,20.07
2018-02-18T20:37:02.085Z,18.75
2018-02-18T20:39:30.349Z,18.65
2018-02-18T20:41:58.848Z,18.23
2018-02-18T20:44:27.225Z,19.02
2018-02-18T20:46:55.626Z,19.70
2018-02-18T20:49:24.796Z,20.73
2018-02-18T20:51:53.093Z,19.10
2018-02-18T20:54:21.565Z,21.15
2018-02-18T20:56:50.646Z,19.05
2018-02-18T20:59:18.915Z,20.20
2018-02-18T21:01:47.169Z,19.30
2018-02-18T21:04:15.452Z,18.43
2018-02-18T21:06:43.758Z,17.20
2018-02-18T21:09:12.138Z,20.42
2018-02-18T21:11:41.289Z,17.75
2018-02-18T21:14:09.698Z,21.10
2018-02-18T21:16:37.991Z,20.37
2018-02-18T21:19:06.294Z,21.43
2018-02-18T21:21:34.629Z,21.62
2018-02-18T21:24:02.908Z,25.90
2018-02-18T21:26:31.201Z,24.60
2018-02-18T21:28:59.472Z,23.80
2018-02-18T21:31:27.731Z,21.83
2018-02-18T21:33:56.119Z,24.07
2018-02-18T21:36:24.389Z,27.45
2018-02-18T21:38:52.767Z,23.60
2018-02-18T21:41:20.996Z,23.45
2018-02-18T21:43:49.620Z,22.73
2018-02-18T21:46:17.917Z,20.90
2018-02-18T21:48:46.186Z,23.00
2018-02-18T21:51:14.500Z,21.00
2018-02-18T21:53:42.788Z,21.70
2018-02-18T21:56:11.197Z,23.77
2018-02-18T21:58:39.464Z,22.55
2018-02-18T22:01:07.851Z,21.90
2018-02-18T22:03:36.150Z,20.88
2018-02-18T22:06:05.323Z,21.02
2018-02-18T22:08:33.597Z,20.73
2018-02-18T22:11:01.834Z,22.80
2018-02-18T22:13:30.147Z,22.10
2018-02-18T22:15:58.372Z,22.83
2018-02-18T22:18:26.700Z,19.35
2018-02-18T22:20:54.936Z,20.95
2018-02-18T22:23:23.253Z,21.98
2018-02-18T22:25:51.731Z,22.62
2018-02-18T22:28:19.984Z,21.50
2018-02-18T22:30:48.284Z,21.60
2018-02-18T22:33:16.534Z,21.60
2018-02-18T22:35:44.849Z,20.70
2018-02-18T22:38:13.225Z,19.83
2018-02-18T22:40:41.498Z,20.83
2018-02-18T22:43:09.867Z,23.12
2018-02-18T22:45:38.185Z,21.05
2018-02-18T22:48:06.413Z,20.60
2018-02-18T22:50:34.692Z,18.80
2018-02-18T22:53:03.279Z,17.55
2018-02-18T22:55:31.657Z,20.48
2018-02-18T22:57:59.872Z,19.83
2018-02-18T23:00:28.138Z,18.45
2018-02-18T23:02:56.482Z,18.12
2018-02-18T23:05:30.387Z,19.00
2018-02-18T23:07:58.623Z,19.02
2018-02-18T23:10:26.948Z,19.98
2018-02-18T23:12:55.218Z,19.25
2018-02-18T23:15:23.441Z,19.30
2018-02-18T23:17:51.970Z,20.05
2018-02-18T23:20:20.200Z,19.77
2018-02-18T23:22:48.568Z,20.88
2018-02-18T23:25:16.853Z,21.60
2018-02-18T23:27:45.103Z,20.58
2018-02-18T23:30:14.107Z,19.10
2018-02-18T23:32:42.437Z,20.02
2018-02-18T23:35:10.712Z,19.67
2018-02-18T23:37:38.989Z,17.48
2018-02-18T23:40:07.267Z,17.70
2018-02-18T23:42:35.520Z,19.17
2018-02-18T23:45:03.906Z,20.10
2018-02-18T23:47:32.317Z,18.00
2018-02-18T23:50:00.775Z,17.70
2018-02-18T23:52:30.077Z,19.67
2018-02-18T23:54:58.387Z,19.80
2018-02-18T23:57:26.639Z,20.40
2018-02-18T23:59:55.005Z,19.40
